sensor_id;sensor_type;location;lat;lon;timestamp;pressure;altitude;pressure_sealevel;temperature;humidity
46534;BME280;32260;52.008;4.752;2023-06-05T00:02:02;102471.78;;;14.72;62.42
46534;BME280;32260;52.008;4.752;2023-06-05T00:04:29;102461.94;;;14.77;61.80
46534;BME280;32260;52.008;4.752;2023-06-05T00:06:55;102465.50;;;14.76;62.19
46534;BME280;32260;52.008;4.752;2023-06-05T00:09:23;102460.25;;;14.64;62.21
46534;BME280;32260;52.008;4.752;2023-06-05T00:11:49;102465.66;;;14.61;61.84
46534;BME280;32260;52.008;4.752;2023-06-05T00:14:15;102456.81;;;14.55;62.74
46534;BME280;32260;52.008;4.752;2023-06-05T00:16:42;102463.94;;;14.53;62.65
46534;BME280;32260;52.008;4.752;2023-06-05T00:19:08;102462.19;;;14.51;62.21
46534;BME280;32260;52.008;4.752;2023-06-05T00:21:34;102463.13;;;14.48;62.98
46534;BME280;32260;52.008;4.752;2023-06-05T00:24:01;102465.78;;;14.45;62.35
46534;BME280;32260;52.008;4.752;2023-06-05T00:26:27;102458.75;;;14.39;63.20
46534;BME280;32260;52.008;4.752;2023-06-05T00:28:53;102460.53;;;14.39;63.25
46534;BME280;32260;52.008;4.752;2023-06-05T00:31:19;102458.75;;;14.38;63.23
46534;BME280;32260;52.008;4.752;2023-06-05T00:33:48;102462.34;;;14.37;62.48
46534;BME280;32260;52.008;4.752;2023-06-05T00:36:14;102463.28;;;14.31;63.75
46534;BME280;32260;52.008;4.752;2023-06-05T00:38:40;102465.97;;;14.30;63.17
46534;BME280;32260;52.008;4.752;2023-06-05T00:41:06;102464.19;;;14.29;63.10
46534;BME280;32260;52.008;4.752;2023-06-05T00:43:32;102459.78;;;14.24;63.66
46534;BME280;32260;52.008;4.752;2023-06-05T00:46:03;102465.09;;;14.26;63.61
46534;BME280;32260;52.008;4.752;2023-06-05T00:48:30;102462.53;;;14.17;63.03
46534;BME280;32260;52.008;4.752;2023-06-05T00:50:57;102459.94;;;14.11;63.90
46534;BME280;32260;52.008;4.752;2023-06-05T00:53:24;102460.81;;;14.11;63.58
46534;BME280;32260;52.008;4.752;2023-06-05T00:55:51;102464.34;;;14.10;62.84
46534;BME280;32260;52.008;4.752;2023-06-05T00:58:18;102462.59;;;14.09;63.65
46534;BME280;32260;52.008;4.752;2023-06-05T01:00:45;102464.41;;;14.07;64.07
46534;BME280;32260;52.008;4.752;2023-06-05T01:03:15;102459.94;;;14.07;64.33
46534;BME280;32260;52.008;4.752;2023-06-05T01:05:43;102466.22;;;14.02;64.19
46534;BME280;32260;52.008;4.752;2023-06-05T01:08:09;102459.06;;;14.04;62.90
46534;BME280;32260;52.008;4.752;2023-06-05T01:10:38;102460.84;;;14.05;63.37
46534;BME280;32260;52.008;4.752;2023-06-05T01:15:39;102458.28;;;13.96;64.03
46534;BME280;32260;52.008;4.752;2023-06-05T01:18:06;102460.06;;;13.94;63.51
46534;BME280;32260;52.008;4.752;2023-06-05T01:20:39;102460.94;;;13.93;63.77
46534;BME280;32260;52.008;4.752;2023-06-05T01:23:06;102457.44;;;13.84;64.68
46534;BME280;32260;52.008;4.752;2023-06-05T01:25:33;102459.22;;;13.85;63.46
46534;BME280;32260;52.008;4.752;2023-06-05T01:28:12;102452.13;;;13.87;63.59
46534;BME280;32260;52.008;4.752;2023-06-05T01:30:50;102457.44;;;13.84;63.66
46534;BME280;32260;52.008;4.752;2023-06-05T01:33:26;102451.28;;;13.82;63.22
46534;BME280;32260;52.008;4.752;2023-06-05T01:35:55;102456.63;;;13.81;64.53
46534;BME280;32260;52.008;4.752;2023-06-05T01:38:22;102455.75;;;13.77;64.35
46534;BME280;32260;52.008;4.752;2023-06-05T01:40:50;102457.50;;;13.78;63.81
46534;BME280;32260;52.008;4.752;2023-06-05T01:43:18;102454.00;;;13.74;64.44
46534;BME280;32260;52.008;4.752;2023-06-05T01:45:44;102448.66;;;13.74;64.56
46534;BME280;32260;52.008;4.752;2023-06-05T01:48:11;102446.88;;;13.75;64.13
46534;BME280;32260;52.008;4.752;2023-06-05T01:50:37;102447.81;;;13.71;64.34
46534;BME280;32260;52.008;4.752;2023-06-05T01:53:04;102448.69;;;13.70;64.74
46534;BME280;32260;52.008;4.752;2023-06-05T01:55:31;102444.28;;;13.67;63.89
46534;BME280;32260;52.008;4.752;2023-06-05T01:57:57;102438.94;;;13.67;63.72
46534;BME280;32260;52.008;4.752;2023-06-05T02:00:24;102438.09;;;13.64;64.13
46534;BME280;32260;52.008;4.752;2023-06-05T02:02:50;102430.13;;;13.62;63.69
46534;BME280;32260;52.008;4.752;2023-06-05T02:05:17;102439.84;;;13.63;63.67
46534;BME280;32260;52.008;4.752;2023-06-05T02:07:46;102442.56;;;13.58;64.65
46534;BME280;32260;52.008;4.752;2023-06-05T02:10:20;102435.44;;;13.61;64.25
46534;BME280;32260;52.008;4.752;2023-06-05T02:12:47;102431.00;;;13.58;64.38
46534;BME280;32260;52.008;4.752;2023-06-05T02:15:13;102435.47;;;13.57;63.98
46534;BME280;32260;52.008;4.752;2023-06-05T02:17:42;102431.91;;;13.57;64.25
46534;BME280;32260;52.008;4.752;2023-06-05T02:20:16;102432.81;;;13.57;63.94
46534;BME280;32260;52.008;4.752;2023-06-05T02:22:43;102427.50;;;13.56;64.17
46534;BME280;32260;52.008;4.752;2023-06-05T02:25:10;102423.94;;;13.55;64.06
46534;BME280;32260;52.008;4.752;2023-06-05T02:27:37;102423.06;;;13.55;64.28
46534;BME280;32260;52.008;4.752;2023-06-05T02:30:03;102430.16;;;13.54;64.63
46534;BME280;32260;52.008;4.752;2023-06-05T02:32:30;102419.53;;;13.51;63.89
46534;BME280;32260;52.008;4.752;2023-06-05T02:34:57;102422.19;;;13.48;64.54
46534;BME280;32260;52.008;4.752;2023-06-05T02:37:24;102424.00;;;13.46;64.66
46534;BME280;32260;52.008;4.752;2023-06-05T02:39:51;102425.78;;;13.46;64.99
46534;BME280;32260;52.008;4.752;2023-06-05T02:42:17;102427.56;;;13.45;64.08
46534;BME280;32260;52.008;4.752;2023-06-05T02:44:44;102430.22;;;13.42;64.93
46534;BME280;32260;52.008;4.752;2023-06-05T02:47:12;102435.56;;;13.42;64.81
46534;BME280;32260;52.008;4.752;2023-06-05T02:49:38;102433.81;;;13.41;64.32
46534;BME280;32260;52.008;4.752;2023-06-05T02:52:04;102430.25;;;13.39;64.70
46534;BME280;32260;52.008;4.752;2023-06-05T02:54:31;102425.81;;;13.38;64.37
46534;BME280;32260;52.008;4.752;2023-06-05T02:56:57;102421.34;;;13.37;64.31
46534;BME280;32260;52.008;4.752;2023-06-05T02:59:26;102421.38;;;13.35;64.61
46534;BME280;32260;52.008;4.752;2023-06-05T03:01:53;102426.72;;;13.34;64.62
46534;BME280;32260;52.008;4.752;2023-06-05T03:04:20;102419.63;;;13.31;64.74
46534;BME280;32260;52.008;4.752;2023-06-05T03:06:50;102413.44;;;13.27;65.22
46534;BME280;32260;52.008;4.752;2023-06-05T03:09:19;102423.22;;;13.24;64.26
46534;BME280;32260;52.008;4.752;2023-06-05T03:11:45;102414.38;;;13.23;64.44
46534;BME280;32260;52.008;4.752;2023-06-05T03:14:11;102420.56;;;13.22;64.66
46534;BME280;32260;52.008;4.752;2023-06-05T03:16:37;102412.59;;;13.21;65.71
46534;BME280;32260;52.008;4.752;2023-06-05T03:19:08;102404.59;;;13.22;64.68
46534;BME280;32260;52.008;4.752;2023-06-05T03:21:35;102399.28;;;13.22;64.41
46534;BME280;32260;52.008;4.752;2023-06-05T03:24:02;102401.97;;;13.21;65.29
46534;BME280;32260;52.008;4.752;2023-06-05T03:26:28;102396.63;;;13.19;64.50
46534;BME280;32260;52.008;4.752;2023-06-05T03:28:54;102397.50;;;13.18;64.94
46534;BME280;32260;52.008;4.752;2023-06-05T03:31:21;102403.75;;;13.17;64.27
46534;BME280;32260;52.008;4.752;2023-06-05T03:33:47;102413.53;;;13.14;65.54
46534;BME280;32260;52.008;4.752;2023-06-05T03:36:13;102409.97;;;13.13;65.22
46534;BME280;32260;52.008;4.752;2023-06-05T03:38:43;102409.97;;;13.13;65.37
46534;BME280;32260;52.008;4.752;2023-06-05T03:41:09;102412.66;;;13.11;65.00
46534;BME280;32260;52.008;4.752;2023-06-05T03:43:35;102407.34;;;13.10;65.14
46534;BME280;32260;52.008;4.752;2023-06-05T03:46:02;102410.00;;;13.07;65.00
46534;BME280;32260;52.008;4.752;2023-06-05T03:48:28;102407.38;;;13.01;65.96
46534;BME280;32260;52.008;4.752;2023-06-05T03:50:54;102410.03;;;13.01;66.08
46534;BME280;32260;52.008;4.752;2023-06-05T03:53:22;102404.75;;;12.98;65.79
46534;BME280;32260;52.008;4.752;2023-06-05T03:55:48;102407.41;;;12.94;67.13
46534;BME280;32260;52.008;4.752;2023-06-05T03:58:18;102412.69;;;13.01;65.97
46534;BME280;32260;52.008;4.752;2023-06-05T04:00:46;102406.50;;;12.99;66.34
46534;BME280;32260;52.008;4.752;2023-06-05T04:03:15;102414.50;;;12.95;66.07
46534;BME280;32260;52.008;4.752;2023-06-05T04:05:42;102419.81;;;12.99;65.98
46534;BME280;32260;52.008;4.752;2023-06-05T04:08:09;102418.00;;;13.01;66.77
46534;BME280;32260;52.008;4.752;2023-06-05T04:10:36;102417.16;;;12.99;66.70
46534;BME280;32260;52.008;4.752;2023-06-05T04:13:02;102416.22;;;13.03;66.41
46534;BME280;32260;52.008;4.752;2023-06-05T04:15:29;102414.44;;;13.06;66.86
46534;BME280;32260;52.008;4.752;2023-06-05T04:17:56;102423.34;;;13.02;66.92
46534;BME280;32260;52.008;4.752;2023-06-05T04:20:22;102414.44;;;13.08;66.67
46534;BME280;32260;52.008;4.752;2023-06-05T04:22:49;102414.44;;;13.11;66.13
46534;BME280;32260;52.008;4.752;2023-06-05T04:25:15;102424.16;;;13.15;65.90
46534;BME280;32260;52.008;4.752;2023-06-05T04:27:44;102425.91;;;13.19;66.08
46534;BME280;32260;52.008;4.752;2023-06-05T04:30:12;102420.56;;;13.19;66.58
46534;BME280;32260;52.008;4.752;2023-06-05T04:32:39;102428.53;;;13.24;65.48
46534;BME280;32260;52.008;4.752;2023-06-05T04:35:07;102418.81;;;13.20;66.62
46534;BME280;32260;52.008;4.752;2023-06-05T04:37:35;102422.34;;;13.22;66.55
46534;BME280;32260;52.008;4.752;2023-06-05T04:40:02;102413.44;;;13.24;66.42
46534;BME280;32260;52.008;4.752;2023-06-05T04:42:32;102424.97;;;13.28;65.78
46534;BME280;32260;52.008;4.752;2023-06-05T04:45:00;102426.72;;;13.32;65.77
46534;BME280;32260;52.008;4.752;2023-06-05T04:47:28;102429.41;;;13.27;66.67
46534;BME280;32260;52.008;4.752;2023-06-05T04:49:57;102432.94;;;13.28;67.16
46534;BME280;32260;52.008;4.752;2023-06-05T04:52:23;102429.34;;;13.37;66.71
46534;BME280;32260;52.008;4.752;2023-06-05T04:54:50;102435.56;;;13.43;65.99
46534;BME280;32260;52.008;4.752;2023-06-05T04:57:16;102433.75;;;13.46;66.29
46534;BME280;32260;52.008;4.752;2023-06-05T04:59:44;102439.94;;;13.52;66.43
46534;BME280;32260;52.008;4.752;2023-06-05T05:02:11;102431.91;;;13.55;66.22
46534;BME280;32260;52.008;4.752;2023-06-05T05:04:37;102427.53;;;13.51;66.12
46534;BME280;32260;52.008;4.752;2023-06-05T05:07:04;102437.22;;;13.57;66.12
46534;BME280;32260;52.008;4.752;2023-06-05T05:09:31;102438.16;;;13.56;66.62
46534;BME280;32260;52.008;4.752;2023-06-05T05:11:58;102437.19;;;13.62;66.46
46534;BME280;32260;52.008;4.752;2023-06-05T05:14:26;102440.72;;;13.67;66.38
46534;BME280;32260;52.008;4.752;2023-06-05T05:16:53;102438.94;;;13.69;66.00
46534;BME280;32260;52.008;4.752;2023-06-05T05:19:21;102430.94;;;13.69;65.70
46534;BME280;32260;52.008;4.752;2023-06-05T05:21:48;102438.00;;;13.76;65.53
46534;BME280;32260;52.008;4.752;2023-06-05T05:24:14;102434.44;;;13.75;65.61
46534;BME280;32260;52.008;4.752;2023-06-05T05:26:40;102432.69;;;13.73;65.33
46534;BME280;32260;52.008;4.752;2023-06-05T05:29:07;102434.38;;;13.82;65.58
46534;BME280;32260;52.008;4.752;2023-06-05T05:31:34;102435.22;;;13.90;65.07
46534;BME280;32260;52.008;4.752;2023-06-05T05:34:00;102430.72;;;13.97;65.12
46534;BME280;32260;52.008;4.752;2023-06-05T05:36:27;102434.25;;;13.99;65.23
46534;BME280;32260;52.008;4.752;2023-06-05T05:38:54;102439.53;;;14.05;64.57
46534;BME280;32260;52.008;4.752;2023-06-05T05:41:20;102450.16;;;14.08;64.67
46534;BME280;32260;52.008;4.752;2023-06-05T05:43:47;102440.28;;;14.18;64.38
46534;BME280;32260;52.008;4.752;2023-06-05T05:46:13;102443.81;;;14.21;64.02
46534;BME280;32260;52.008;4.752;2023-06-05T05:48:39;102442.91;;;14.26;64.02
46534;BME280;32260;52.008;4.752;2023-06-05T05:51:06;102436.66;;;14.28;64.27
46534;BME280;32260;52.008;4.752;2023-06-05T05:53:33;102433.91;;;14.33;64.15
46534;BME280;32260;52.008;4.752;2023-06-05T05:56:00;102440.13;;;14.35;64.05
46534;BME280;32260;52.008;4.752;2023-06-05T05:58:26;102437.41;;;14.41;64.02
46534;BME280;32260;52.008;4.752;2023-06-05T06:00:52;102430.19;;;14.51;63.90
46534;BME280;32260;52.008;4.752;2023-06-05T06:03:18;102434.59;;;14.55;63.38
46534;BME280;32260;52.008;4.752;2023-06-05T06:05:45;102431.03;;;14.56;63.54
46534;BME280;32260;52.008;4.752;2023-06-05T06:08:12;102438.94;;;14.62;63.63
46534;BME280;32260;52.008;4.752;2023-06-05T06:10:38;102445.16;;;14.63;63.24
46534;BME280;32260;52.008;4.752;2023-06-05T06:13:04;102452.25;;;14.68;63.54
46534;BME280;32260;52.008;4.752;2023-06-05T06:15:32;102449.47;;;14.78;63.25
46534;BME280;32260;52.008;4.752;2023-06-05T06:17:58;102444.09;;;14.81;63.21
46534;BME280;32260;52.008;4.752;2023-06-05T06:20:28;102436.06;;;14.84;62.88
46534;BME280;32260;52.008;4.752;2023-06-05T06:22:54;102444.00;;;14.88;62.63
46534;BME280;32260;52.008;4.752;2023-06-05T06:25:21;102444.00;;;14.88;62.96
46534;BME280;32260;52.008;4.752;2023-06-05T06:27:47;102440.41;;;14.91;62.66
46534;BME280;32260;52.008;4.752;2023-06-05T06:30:15;102443.00;;;14.97;62.64
46534;BME280;32260;52.008;4.752;2023-06-05T06:32:41;102442.13;;;14.97;62.74
46534;BME280;32260;52.008;4.752;2023-06-05T06:35:08;102437.56;;;15.05;62.44
46534;BME280;32260;52.008;4.752;2023-06-05T06:37:34;102443.78;;;15.04;62.56
46534;BME280;32260;52.008;4.752;2023-06-05T06:40:00;102441.13;;;15.04;62.05
46534;BME280;32260;52.008;4.752;2023-06-05T06:42:26;102443.63;;;15.16;62.01
46534;BME280;32260;52.008;4.752;2023-06-05T06:44:53;102451.56;;;15.24;62.00
46534;BME280;32260;52.008;4.752;2023-06-05T06:47:22;102450.56;;;15.30;61.76
46534;BME280;32260;52.008;4.752;2023-06-05T06:49:48;102449.56;;;15.39;61.54
46534;BME280;32260;52.008;4.752;2023-06-05T06:52:15;102441.44;;;15.46;61.71
46534;BME280;32260;52.008;4.752;2023-06-05T06:54:42;102444.09;;;15.46;61.29
46534;BME280;32260;52.008;4.752;2023-06-05T06:57:08;102446.81;;;15.45;61.21
46534;BME280;32260;52.008;4.752;2023-06-05T06:59:34;102451.16;;;15.52;61.27
46534;BME280;32260;52.008;4.752;2023-06-05T07:02:17;102450.03;;;15.67;61.13
46534;BME280;32260;52.008;4.752;2023-06-05T07:04:44;102445.56;;;15.67;60.91
46534;BME280;32260;52.008;4.752;2023-06-05T07:07:12;102453.53;;;15.72;60.51
46534;BME280;32260;52.008;4.752;2023-06-05T07:09:39;102453.34;;;15.84;60.60
46534;BME280;32260;52.008;4.752;2023-06-05T07:12:08;102461.28;;;15.91;60.63
46534;BME280;32260;52.008;4.752;2023-06-05T07:14:34;102448.00;;;15.84;60.21
46534;BME280;32260;52.008;4.752;2023-06-05T07:17:01;102452.22;;;15.99;60.18
46534;BME280;32260;52.008;4.752;2023-06-05T07:19:28;102458.41;;;16.03;60.07
46534;BME280;32260;52.008;4.752;2023-06-05T07:21:56;102464.44;;;16.14;59.93
46534;BME280;32260;52.008;4.752;2023-06-05T07:24:28;102457.25;;;16.18;59.78
46534;BME280;32260;52.008;4.752;2023-06-05T07:26:56;102459.81;;;16.24;59.62
46534;BME280;32260;52.008;4.752;2023-06-05T07:29:23;102463.13;;;16.39;59.38
46534;BME280;32260;52.008;4.752;2023-06-05T07:31:50;102453.22;;;16.44;58.99
46534;BME280;32260;52.008;4.752;2023-06-05T07:34:18;102451.25;;;16.54;59.09
46534;BME280;32260;52.008;4.752;2023-06-05T07:36:46;102457.28;;;16.65;59.27
46534;BME280;32260;52.008;4.752;2023-06-05T07:39:13;102456.22;;;16.72;59.02
46534;BME280;32260;52.008;4.752;2023-06-05T07:41:40;102448.06;;;16.78;58.90
46534;BME280;32260;52.008;4.752;2023-06-05T07:44:11;102449.66;;;16.89;58.30
46534;BME280;32260;52.008;4.752;2023-06-05T07:46:40;102449.50;;;16.98;57.87
46534;BME280;32260;52.008;4.752;2023-06-05T07:49:07;102456.47;;;17.05;57.72
46534;BME280;32260;52.008;4.752;2023-06-05T07:51:33;102449.34;;;17.04;56.97
46534;BME280;32260;52.008;4.752;2023-06-05T07:54:03;102447.22;;;17.20;57.10
46534;BME280;32260;52.008;4.752;2023-06-05T07:56:35;102452.41;;;17.28;57.03
46534;BME280;32260;52.008;4.752;2023-06-05T07:59:02;102443.41;;;17.32;56.62
46534;BME280;32260;52.008;4.752;2023-06-05T08:01:30;102447.69;;;17.39;56.53
46534;BME280;32260;52.008;4.752;2023-06-05T08:03:56;102450.38;;;17.39;56.33
46534;BME280;32260;52.008;4.752;2023-06-05T08:06:24;102443.91;;;17.48;56.01
46534;BME280;32260;52.008;4.752;2023-06-05T08:08:51;102433.97;;;17.53;56.11
46534;BME280;32260;52.008;4.752;2023-06-05T08:11:18;102437.44;;;17.58;56.00
46534;BME280;32260;52.008;4.752;2023-06-05T08:13:44;102438.31;;;17.59;55.81
46534;BME280;32260;52.008;4.752;2023-06-05T08:16:11;102436.19;;;17.72;55.78
46534;BME280;32260;52.008;4.752;2023-06-05T08:18:37;102447.66;;;17.78;55.96
46534;BME280;32260;52.008;4.752;2023-06-05T08:21:03;102435.81;;;17.87;55.53
46534;BME280;32260;52.008;4.752;2023-06-05T08:23:29;102436.56;;;17.94;55.34
46534;BME280;32260;52.008;4.752;2023-06-05T08:25:55;102437.22;;;18.04;55.46
46534;BME280;32260;52.008;4.752;2023-06-05T08:28:21;102438.66;;;18.17;55.18
46534;BME280;32260;52.008;4.752;2023-06-05T08:30:48;102433.16;;;18.23;55.12
46534;BME280;32260;52.008;4.752;2023-06-05T08:33:15;102426.88;;;18.23;54.12
46534;BME280;32260;52.008;4.752;2023-06-05T08:35:41;102429.41;;;18.29;54.22
46534;BME280;32260;52.008;4.752;2023-06-05T08:38:08;102429.38;;;18.31;53.99
46534;BME280;32260;52.008;4.752;2023-06-05T08:40:34;102434.53;;;18.38;53.82
46534;BME280;32260;52.008;4.752;2023-06-05T08:43:02;102430.78;;;18.44;54.34
46534;BME280;32260;52.008;4.752;2023-06-05T08:45:30;102438.59;;;18.53;54.44
46534;BME280;32260;52.008;4.752;2023-06-05T08:48:00;102430.19;;;18.66;54.80
46534;BME280;32260;52.008;4.752;2023-06-05T08:50:28;102432.53;;;18.76;54.30
46534;BME280;32260;52.008;4.752;2023-06-05T08:52:59;102425.03;;;18.89;54.07
46534;BME280;32260;52.008;4.752;2023-06-05T08:55:27;102428.56;;;18.90;53.99
46534;BME280;32260;52.008;4.752;2023-06-05T08:57:54;102430.19;;;18.97;53.39
46534;BME280;32260;52.008;4.752;2023-06-05T09:00:21;102424.81;;;18.97;53.31
46534;BME280;32260;52.008;4.752;2023-06-05T09:02:48;102431.97;;;18.98;53.05
46534;BME280;32260;52.008;4.752;2023-06-05T09:05:15;102431.66;;;19.07;52.69
46534;BME280;32260;52.008;4.752;2023-06-05T09:07:41;102435.38;;;19.03;51.88
46534;BME280;32260;52.008;4.752;2023-06-05T09:10:39;102415.66;;;19.04;51.84
46534;BME280;32260;52.008;4.752;2023-06-05T09:12:56;102428.84;;;19.12;52.17
46534;BME280;32260;52.008;4.752;2023-06-05T09:15:26;102421.56;;;19.16;51.96
46534;BME280;32260;52.008;4.752;2023-06-05T09:20:46;102419.25;;;19.03;51.04
46534;BME280;32260;52.008;4.752;2023-06-05T09:23:32;102414.97;;;19.26;51.06
46534;BME280;32260;52.008;4.752;2023-06-05T09:25:59;102416.66;;;19.30;51.70
46534;BME280;32260;52.008;4.752;2023-06-05T09:28:26;102422.72;;;19.37;51.66
46534;BME280;32260;52.008;4.752;2023-06-05T09:30:56;102413.16;;;19.55;51.86
46534;BME280;32260;52.008;4.752;2023-06-05T09:33:24;102412.22;;;19.56;51.25
46534;BME280;32260;52.008;4.752;2023-06-05T09:36:11;102410.47;;;19.82;50.46
46534;BME280;32260;52.008;4.752;2023-06-05T09:38:39;102404.94;;;19.88;50.27
46534;BME280;32260;52.008;4.752;2023-06-05T09:43:41;102404.50;;;20.00;50.75
46534;BME280;32260;52.008;4.752;2023-06-05T09:48:57;102407.19;;;20.26;50.01
46534;BME280;32260;52.008;4.752;2023-06-05T09:51:23;102412.56;;;20.26;50.86
46534;BME280;32260;52.008;4.752;2023-06-05T09:53:50;102402.13;;;20.42;50.28
46534;BME280;32260;52.008;4.752;2023-06-05T09:56:19;102404.69;;;20.45;49.69
46534;BME280;32260;52.008;4.752;2023-06-05T09:58:48;102412.47;;;20.54;48.96
46534;BME280;32260;52.008;4.752;2023-06-05T10:01:18;102410.59;;;20.56;49.44
46534;BME280;32260;52.008;4.752;2023-06-05T10:03:54;102406.00;;;20.58;48.75
46534;BME280;32260;52.008;4.752;2023-06-05T10:06:22;102402.38;;;20.59;49.39
46534;BME280;32260;52.008;4.752;2023-06-05T10:08:50;102406.16;;;20.53;48.57
46534;BME280;32260;52.008;4.752;2023-06-05T10:11:19;102395.72;;;20.69;48.46
46534;BME280;32260;52.008;4.752;2023-06-05T10:13:47;102401.88;;;20.73;48.19
46534;BME280;32260;52.008;4.752;2023-06-05T10:16:16;102399.88;;;20.80;48.11
46534;BME280;32260;52.008;4.752;2023-06-05T10:18:46;102394.50;;;20.78;46.22
46534;BME280;32260;52.008;4.752;2023-06-05T10:21:17;102387.66;;;20.93;46.90
46534;BME280;32260;52.008;4.752;2023-06-05T10:23:49;102392.94;;;20.96;47.45
46534;BME280;32260;52.008;4.752;2023-06-05T10:30:40;102387.69;;;21.15;46.70
46534;BME280;32260;52.008;4.752;2023-06-05T10:33:06;102377.91;;;21.13;46.31
46534;BME280;32260;52.008;4.752;2023-06-05T10:35:41;102383.19;;;21.16;47.15
46534;BME280;32260;52.008;4.752;2023-06-05T10:40:54;102376.81;;;21.17;45.97
46534;BME280;32260;52.008;4.752;2023-06-05T10:51:45;102375.16;;;21.59;46.78
46534;BME280;32260;52.008;4.752;2023-06-05T10:54:15;102376.00;;;21.61;46.58
46534;BME280;32260;52.008;4.752;2023-06-05T10:57:02;102377.41;;;21.70;46.44
46534;BME280;32260;52.008;4.752;2023-06-05T10:59:31;102377.94;;;21.78;46.44
46534;BME280;32260;52.008;4.752;2023-06-05T11:07:26;102371.22;;;22.09;45.47
46534;BME280;32260;52.008;4.752;2023-06-05T11:10:09;102375.47;;;22.14;44.70
46534;BME280;32260;52.008;4.752;2023-06-05T11:15:14;102367.03;;;22.02;45.05
46534;BME280;32260;52.008;4.752;2023-06-05T11:17:47;102365.00;;;22.07;45.00
46534;BME280;32260;52.008;4.752;2023-06-05T11:25:40;102357.47;;;22.34;43.72
46534;BME280;32260;52.008;4.752;2023-06-05T11:28:07;102355.06;;;22.49;44.55
46534;BME280;32260;52.008;4.752;2023-06-05T11:30:44;102360.00;;;22.58;43.63
46534;BME280;32260;52.008;4.752;2023-06-05T11:33:12;102356.91;;;22.67;44.03
46534;BME280;32260;52.008;4.752;2023-06-05T11:35:39;102352.88;;;22.76;44.05
46534;BME280;32260;52.008;4.752;2023-06-05T11:38:22;102352.13;;;22.91;43.26
46534;BME280;32260;52.008;4.752;2023-06-05T11:40:48;102352.72;;;22.79;42.71
46534;BME280;32260;52.008;4.752;2023-06-05T11:43:15;102351.34;;;22.89;42.59
46534;BME280;32260;52.008;4.752;2023-06-05T11:45:43;102347.53;;;22.93;44.33
46534;BME280;32260;52.008;4.752;2023-06-05T11:48:14;102345.94;;;22.89;42.99
46534;BME280;32260;52.008;4.752;2023-06-05T11:53:32;102335.09;;;23.08;43.63
46534;BME280;32260;52.008;4.752;2023-06-05T11:55:59;102332.03;;;23.16;42.86
46534;BME280;32260;52.008;4.752;2023-06-05T11:58:37;102340.06;;;23.18;42.13
46534;BME280;32260;52.008;4.752;2023-06-05T12:01:19;102338.59;;;23.30;43.52
46534;BME280;32260;52.008;4.752;2023-06-05T12:04:07;102337.91;;;23.43;42.32
46534;BME280;32260;52.008;4.752;2023-06-05T12:06:41;102339.97;;;23.38;40.98
46534;BME280;32260;52.008;4.752;2023-06-05T12:09:10;102329.78;;;23.61;42.35
46534;BME280;32260;52.008;4.752;2023-06-05T12:11:37;102330.38;;;23.68;43.00
46534;BME280;32260;52.008;4.752;2023-06-05T12:14:04;102330.19;;;23.88;42.45
46534;BME280;32260;52.008;4.752;2023-06-05T12:16:34;102338.63;;;24.00;42.21
46534;BME280;32260;52.008;4.752;2023-06-05T12:19:02;102331.59;;;24.13;41.83
46534;BME280;32260;52.008;4.752;2023-06-05T12:21:29;102335.13;;;24.15;41.37
46534;BME280;32260;52.008;4.752;2023-06-05T12:24:04;102326.06;;;24.32;42.06
46534;BME280;32260;52.008;4.752;2023-06-05T12:27:02;102325.91;;;24.35;42.32
46534;BME280;32260;52.008;4.752;2023-06-05T12:29:20;102325.94;;;24.51;41.74
46534;BME280;32260;52.008;4.752;2023-06-05T12:31:47;102322.75;;;24.43;39.58
46534;BME280;32260;52.008;4.752;2023-06-05T12:34:14;102323.81;;;24.41;41.03
46534;BME280;32260;52.008;4.752;2023-06-05T12:36:42;102320.94;;;24.44;40.59
46534;BME280;32260;52.008;4.752;2023-06-05T12:39:11;102317.53;;;24.40;39.56
46534;BME280;32260;52.008;4.752;2023-06-05T12:41:38;102315.31;;;24.31;41.94
46534;BME280;32260;52.008;4.752;2023-06-05T12:44:06;102320.31;;;24.38;40.98
46534;BME280;32260;52.008;4.752;2023-06-05T12:46:34;102315.94;;;24.36;40.50
46534;BME280;32260;52.008;4.752;2023-06-05T12:49:02;102313.06;;;24.39;42.24
46534;BME280;32260;52.008;4.752;2023-06-05T12:51:29;102323.22;;;24.51;41.75
46534;BME280;32260;52.008;4.752;2023-06-05T12:53:56;102312.03;;;24.58;41.15
46534;BME280;32260;52.008;4.752;2023-06-05T12:56:23;102315.47;;;24.77;41.39
46534;BME280;32260;52.008;4.752;2023-06-05T12:58:54;102304.28;;;24.83;40.25
46534;BME280;32260;52.008;4.752;2023-06-05T13:01:21;102301.81;;;24.95;39.30
46534;BME280;32260;52.008;4.752;2023-06-05T13:03:48;102292.22;;;25.05;39.71
46534;BME280;32260;52.008;4.752;2023-06-05T13:06:14;102289.91;;;25.13;40.19
46534;BME280;32260;52.008;4.752;2023-06-05T13:08:40;102284.13;;;25.19;39.38
46534;BME280;32260;52.008;4.752;2023-06-05T13:11:06;102279.91;;;25.30;39.40
46534;BME280;32260;52.008;4.752;2023-06-05T13:13:33;102281.47;;;25.34;39.56
46534;BME280;32260;52.008;4.752;2023-06-05T13:15:59;102273.47;;;25.47;40.53
46534;BME280;32260;52.008;4.752;2023-06-05T13:18:27;102278.34;;;25.56;39.81
46534;BME280;32260;52.008;4.752;2023-06-05T13:20:53;102270.91;;;25.60;40.04
46534;BME280;32260;52.008;4.752;2023-06-05T13:23:19;102267.03;;;25.64;39.27
46534;BME280;32260;52.008;4.752;2023-06-05T13:25:45;102264.91;;;25.69;39.22
46534;BME280;32260;52.008;4.752;2023-06-05T13:28:12;102267.44;;;25.72;37.26
46534;BME280;32260;52.008;4.752;2023-06-05T13:30:38;102261.41;;;25.67;38.48
46534;BME280;32260;52.008;4.752;2023-06-05T13:33:04;102258.69;;;25.67;38.41
46534;BME280;32260;52.008;4.752;2023-06-05T13:35:30;102255.59;;;25.73;38.24
46534;BME280;32260;52.008;4.752;2023-06-05T13:37:56;102259.09;;;25.75;38.17